Union Manta — ORKJ — position and weather

sailwx.info

Track history (hours):
 
Tides and Currents Weather Stations Pressure Air Temp Water Temp Dewpoint Dewpoint Depression Visibility Wind Speed Wind Dir Waves Ship Positions

Union Manta

Last reported at 2014-Jul-23 10:33 UTC. Time now 2014-Jul-23 11:28 UTC.
Position N 53°58' E 006°55'.

Length 75 m; draft 6.3 m.

Type: Other ship. MMSI: 205340000.

Date/timePositionNaut miles runAvg speedWind from/ knotsBaromVisibWave heightAir tempDewpointWater temp
2014-Jul-23 10:33N 53°58' E 006°55'1 1.3
2014-Jul-23 09:33N 53°59' E 006°55'0 0.0
2014-Jul-23 08:33N 53°59' E 006°55'0 0.0
2014-Jul-23 07:33N 53°59' E 006°55'0 0.0
2014-Jul-23 06:33N 53°59' E 006°55'0 0.1
2014-Jul-23 05:33N 53°59' E 006°55'5 4.9
2014-Jul-23 04:33N 53°54' E 006°56'6 5.6
2014-Jul-23 03:33N 53°50' E 006°51'6 6.3
2014-Jul-23 02:33N 53°48' E 006°41'6 5.9
2014-Jul-23 01:33N 53°45' E 006°32'5 5.3
2014-Jul-23 00:33N 53°43' E 006°24'5 4.6
2014-Jul-22 23:33N 53°38' E 006°20'4 3.8
2014-Jul-22 22:33N 53°37' E 006°26'5 5.4
2014-Jul-22 21:33N 53°36' E 006°35'9 9.3
2014-Jul-22 20:33N 53°30' E 006°48'4 3.6
2014-Jul-22 19:33N 53°27' E 006°49'0 0.0
2014-Jul-22 18:33N 53°27' E 006°49'0 0.0
2014-Jul-22 17:34N 53°27' E 006°49'0 0.0
2014-Jul-22 16:33N 53°27' E 006°49'0 0.0
2014-Jul-22 15:33N 53°27' E 006°49'0 0.0
2014-Jul-22 14:34N 53°27' E 006°49'0 0.1
2014-Jul-22 13:33N 53°27' E 006°49'10 9.8
2014-Jul-22 12:31N 53°35' E 006°38'10 8.6
2014-Jul-22 11:19N 53°37' E 006°21'810.0
2014-Jul-22 10:33N 53°42' E 006°12'9 9.1
2014-Jul-22 09:33N 53°40' E 005°56'10 9.5
2014-Jul-22 08:33N 53°37' E 005°41'10 9.6
2014-Jul-22 07:33N 53°34' E 005°26'9 8.8
2014-Jul-22 06:33N 53°31' E 005°12'9 9.2
2014-Jul-22 05:33N 53°27' E 004°58'10 9.6
2014-Jul-22 04:33N 53°23' E 004°43'1010.0
2014-Jul-22 03:33N 53°14' E 004°36'1010.2
2014-Jul-22 02:33N 53°05' E 004°27'1110.3
2014-Jul-22 01:32N 52°56' E 004°19'1010.5
2014-Jul-22 00:33N 52°47' E 004°11'1010.5
2014-Jul-21 23:33N 52°38' E 004°01'1010.2
2014-Jul-21 22:33N 52°29' E 003°54'1110.6
2014-Jul-21 21:33N 52°19' E 003°52'1010.2
2014-Jul-21 20:33N 52°09' E 003°55'3 9.9
2014-Jul-21 20:18N 52°06' E 003°55'5 6.9
2014-Jul-21 19:33N 52°01' E 003°59'10 9.7
2014-Jul-21 18:33N 51°56' E 004°12'1 0.6
2014-Jul-21 17:33N 51°55' E 004°13'0 0.0
2014-Jul-21 16:33N 51°55' E 004°13'0 0.0
2014-Jul-21 15:33N 51°55' E 004°13'0 0.0
2014-Jul-21 14:33N 51°56' E 004°13'0 0.1
2014-Jul-21 13:33N 51°55' E 004°13'0 0.1
2014-Jul-21 12:33N 51°55' E 004°13'0 0.2
2014-Jul-21 11:33N 51°56' E 004°13'0 0.0
2014-Jul-21 10:33N 51°56' E 004°13'0 0.0
2014-Jul-21 09:33N 51°56' E 004°13'4 4.4
2014-Jul-21 08:33N 51°58' E 004°07'7 7.0
2014-Jul-21 07:33N 51°54' E 004°16'6 6.3
2014-Jul-21 06:33N 51°54' E 004°26'1 0.5
2014-Jul-21 05:33N 51°53' E 004°27'0 0.0
2014-Jul-21 04:33N 51°53' E 004°27'0 0.0
2014-Jul-21 03:33N 51°53' E 004°27'0 0.0
2014-Jul-21 02:33N 51°53' E 004°27'0 0.0
2014-Jul-21 01:33N 51°53' E 004°27'0 0.0
2014-Jul-21 00:33N 51°53' E 004°27'0 0.0
2014-Jul-20 23:33N 51°53' E 004°27'0 0.0
2014-Jul-20 22:33N 51°53' E 004°27'0 0.0
2014-Jul-20 21:33N 51°53' E 004°27'0 0.0
2014-Jul-20 20:33N 51°53' E 004°27'0 0.0
2014-Jul-20 19:33N 51°53' E 004°27'0 0.0
2014-Jul-20 18:33N 51°53' E 004°27'0 0.0
2014-Jul-20 17:33N 51°53' E 004°27'0 0.0
2014-Jul-20 16:33N 51°53' E 004°27'0 0.2
2014-Jul-20 15:33N 51°53' E 004°27'8 7.5
2014-Jul-20 14:33N 51°55' E 004°15'1111.4
2014-Jul-20 13:33N 52°00' E 003°59'9 8.5
2014-Jul-20 12:33N 51°59' E 003°45'8 7.8
2014-Jul-20 11:33N 51°57' E 003°32'1010.2
2014-Jul-20 10:33N 51°55' E 003°17'1010.1
2014-Jul-20 09:33N 51°53' E 003°00'4 1.7
2014-Jul-20 07:10N 51°51' E 002°54'0 0.3
2014-Jul-20 06:33N 51°51' E 002°54'6 5.7
2014-Jul-20 05:33N 51°55' E 003°01'6 5.9
2014-Jul-20 04:33N 51°60' E 003°07'6 6.1
2014-Jul-20 03:31N 52°03' E 003°16'6 6.7
2014-Jul-20 02:33N 52°04' E 003°26'8 7.6
2014-Jul-20 01:33N 52°04' E 003°39'7 7.5
2014-Jul-20 00:34N 52°03' E 003°51'1211.5
2014-Jul-19 23:33N 51°58' E 004°08'10 9.7
2014-Jul-19 22:33N 51°54' E 004°22'2 2.2
2014-Jul-19 21:33N 51°54' E 004°26'0 0.0
2014-Jul-19 20:33N 51°54' E 004°26'0 0.0
2014-Jul-19 19:33N 51°54' E 004°26'0 0.0
2014-Jul-19 18:32N 51°54' E 004°26'0 0.0
2014-Jul-19 17:33N 51°54' E 004°26'0 0.0
2014-Jul-19 16:33N 51°54' E 004°26'0 0.0
2014-Jul-19 15:33N 51°54' E 004°26'0 0.0
2014-Jul-19 14:32N 51°54' E 004°26'0 0.0
2014-Jul-19 13:33N 51°54' E 004°26'0 0.0
2014-Jul-19 12:33N 51°54' E 004°26'0 0.0
2014-Jul-19 11:33N 51°54' E 004°26'0 0.0
2014-Jul-19 10:33N 51°54' E 004°26'0 0.0
2014-Jul-19 09:30N 51°54' E 004°26'0 0.0
2014-Jul-19 08:33N 51°54' E 004°26'0 0.0
2014-Jul-19 06:32N 51°54' E 004°26'0 0.0
2014-Jul-19 05:32N 51°54' E 004°26'0 0.0
2014-Jul-19 04:33N 51°54' E 004°26'0 0.0
2014-Jul-19 03:32N 51°54' E 004°26'0 0.0
2014-Jul-19 02:33N 51°54' E 004°26'0 0.0
2014-Jul-19 01:33N 51°54' E 004°26'0 0.0
2014-Jul-19 00:33N 51°54' E 004°26'0 0.0
2014-Jul-18 23:33N 51°54' E 004°26'0 0.0
2014-Jul-18 22:33N 51°54' E 004°26'0 0.0
2014-Jul-18 21:32N 51°54' E 004°26'0 0.0
2014-Jul-18 20:32N 51°54' E 004°26'0 0.0
2014-Jul-18 19:32N 51°54' E 004°26'0 0.0
2014-Jul-18 18:32N 51°54' E 004°26'0 0.2
2014-Jul-18 17:33N 51°54' E 004°26'1 1.2
2014-Jul-18 16:32N 51°53' E 004°27'0 0.0
2014-Jul-18 15:32N 51°53' E 004°27'0 0.0
2014-Jul-18 14:29N 51°53' E 004°27'0 0.0
2014-Jul-18 13:32N 51°53' E 004°27'0 0.0
2014-Jul-18 12:29N 51°53' E 004°27'0 0.0
2014-Jul-18 11:32N 51°53' E 004°27'0 0.0
2014-Jul-18 10:32N 51°53' E 004°27'0 0.0
2014-Jul-18 09:32N 51°53' E 004°27'0 0.0
2014-Jul-18 08:32N 51°53' E 004°27'0 0.0
2014-Jul-18 07:32N 51°53' E 004°27'0 0.0
2014-Jul-18 06:32N 51°53' E 004°27'0 0.0
2014-Jul-18 05:32N 51°53' E 004°27'0 0.0
2014-Jul-18 04:32N 51°53' E 004°27'0 0.0
2014-Jul-18 03:29N 51°53' E 004°27'0 0.0
2014-Jul-18 02:32N 51°53' E 004°27'0 0.0
2014-Jul-18 01:32N 51°53' E 004°27'0 0.0
2014-Jul-18 00:32N 51°53' E 004°27'0 0.0
2014-Jul-17 23:32N 51°53' E 004°27'0 0.0
2014-Jul-17 22:32N 51°53' E 004°27'0 0.0
2014-Jul-17 21:32N 51°53' E 004°27'0 0.0
2014-Jul-17 20:32N 51°53' E 004°27'0 0.0
2014-Jul-17 19:32N 51°53' E 004°27'0 0.0
2014-Jul-17 18:32N 51°53' E 004°27'0 0.0
2014-Jul-17 17:29N 51°53' E 004°27'0 0.3
2014-Jul-17 16:33N 51°53' E 004°27'0 0.0
2014-Jul-17 15:33N 51°53' E 004°27'0 0.0
2014-Jul-17 14:33N 51°53' E 004°27'0 0.0
2014-Jul-17 13:33N 51°53' E 004°27'0 0.0
2014-Jul-17 12:33N 51°53' E 004°27'0 0.0
2014-Jul-17 11:30N 51°53' E 004°27'0 0.0
2014-Jul-17 10:33N 51°53' E 004°27'0 0.0
2014-Jul-17 09:30N 51°53' E 004°27'0 0.0
2014-Jul-17 08:30N 51°53' E 004°27'0 0.0
2014-Jul-17 07:33N 51°53' E 004°27'0 0.0
2014-Jul-17 06:33N 51°53' E 004°27'0 0.0
2014-Jul-17 05:33N 51°53' E 004°27'0 0.0
2014-Jul-17 04:33N 51°53' E 004°27'0 0.0
2014-Jul-17 03:33N 51°53' E 004°27'0 0.0
2014-Jul-17 02:33N 51°53' E 004°27'0 0.0
2014-Jul-17 01:33N 51°53' E 004°27'0 0.0
2014-Jul-17 00:33N 51°53' E 004°27'0 0.0
2014-Jul-16 23:33N 51°53' E 004°27'0 0.0
2014-Jul-16 22:33N 51°53' E 004°27'0 0.0
2014-Jul-16 21:33N 51°53' E 004°27'0 0.0
2014-Jul-16 20:33N 51°53' E 004°27'0 0.0
2014-Jul-16 19:33N 51°53' E 004°27'0 0.0
2014-Jul-16 18:33N 51°53' E 004°27'0 0.0
2014-Jul-16 17:33N 51°53' E 004°27'0 0.0
2014-Jul-16 16:33N 51°53' E 004°27'0 0.0
2014-Jul-16 15:33N 51°53' E 004°27'0 0.0
2014-Jul-16 14:33N 51°53' E 004°27'0 0.0
2014-Jul-16 13:33N 51°53' E 004°27'0 0.0
2014-Jul-16 12:33N 51°53' E 004°27'0 0.0
2014-Jul-16 11:33N 51°53' E 004°27'0 0.0
2014-Jul-16 10:33N 51°53' E 004°27'0 0.0
2014-Jul-16 09:33N 51°53' E 004°27'0 0.0
2014-Jul-16 08:33N 51°53' E 004°27'0 0.0
2014-Jul-16 07:30N 51°53' E 004°27'0 0.0
2014-Jul-16 06:33N 51°53' E 004°27'0 0.0
2014-Jul-16 05:33N 51°53' E 004°27'0 0.0
2014-Jul-16 04:30N 51°53' E 004°27'0 0.0
2014-Jul-16 03:33N 51°53' E 004°27'0 0.0
2014-Jul-16 02:30N 51°53' E 004°27'0 0.0
2014-Jul-16 01:33N 51°53' E 004°27'0 0.0
2014-Jul-16 00:33N 51°53' E 004°27'0 0.0
2014-Jul-15 23:33N 51°53' E 004°27'0 0.0
2014-Jul-15 22:33N 51°53' E 004°27'0 0.0
2014-Jul-15 21:30N 51°53' E 004°27'0 0.0
2014-Jul-15 20:33N 51°53' E 004°27'0 0.0
2014-Jul-15 19:30N 51°53' E 004°27'0 0.0
2014-Jul-15 18:33N 51°53' E 004°27'0 0.0
2014-Jul-15 17:33N 51°53' E 004°27'0 0.0
2014-Jul-15 16:33N 51°53' E 004°27'0 0.0
2014-Jul-15 15:33N 51°53' E 004°27'0 0.0
2014-Jul-15 14:34N 51°53' E 004°27'0 0.0
2014-Jul-15 13:33N 51°53' E 004°27'0 0.0
2014-Jul-15 12:33N 51°53' E 004°27'0 0.0
2014-Jul-15 11:34N 51°53' E 004°27'0 0.0
2014-Jul-15 10:34N 51°53' E 004°27'0 0.0
2014-Jul-15 09:34N 51°53' E 004°27'0 0.0
2014-Jul-15 08:33N 51°53' E 004°27'0 0.0
2014-Jul-15 07:34N 51°53' E 004°27'0 0.0
2014-Jul-15 06:33N 51°53' E 004°27'0 0.0
2014-Jul-15 05:34N 51°53' E 004°27'0 0.0
2014-Jul-15 04:34N 51°53' E 004°27'0 0.0
2014-Jul-15 03:33N 51°53' E 004°27'0 0.0
2014-Jul-15 02:33N 51°53' E 004°27'0 0.0
2014-Jul-15 01:34N 51°53' E 004°27'0 0.0
2014-Jul-15 00:34N 51°53' E 004°27'0 0.0
2014-Jul-14 23:34N 51°53' E 004°27'0 0.0
2014-Jul-14 22:33N 51°53' E 004°27'0 0.0
2014-Jul-14 21:34N 51°53' E 004°27'0 0.0
2014-Jul-14 20:34N 51°53' E 004°27'0 0.0
2014-Jul-14 19:34N 51°53' E 004°27'0 0.0
2014-Jul-14 18:33N 51°53' E 004°27'0 0.0
2014-Jul-14 17:34N 51°53' E 004°27'0 0.2
2014-Jul-14 16:33N 51°53' E 004°27'8 7.8
2014-Jul-14 15:34N 51°55' E 004°15'1211.7
2014-Jul-14 14:33N 52°00' E 003°58'8 7.5
2014-Jul-14 13:33N 52°04' E 003°47'6 5.2
2014-Jul-14 12:20N 52°10' E 003°46'6 8.3
2014-Jul-14 11:33N 52°16' E 003°47'1212.1
2014-Jul-14 10:33N 52°28' E 003°50'7310.4
2014-Jul-14 03:31N 53°36' E 004°39'2611.6
2014-Jul-14 01:16N 54°01' E 004°52'911.3
2014-Jul-14 00:26N 54°09' E 005°01'1011.3
2014-Jul-13 23:32N 54°14' E 005°15'1410.8
2014-Jul-13 22:13N 54°22' E 005°36'7 9.8
2014-Jul-13 21:32N 54°25' E 005°46'1010.4
2014-Jul-13 20:33N 54°31' E 005°60'1110.7
2014-Jul-13 19:31N 54°37' E 006°16'13 9.6
2014-Jul-13 18:10N 54°45' E 006°34'2325.6
2014-Jul-13 17:17N 54°57' E 007°07'5 5.3
2014-Jul-13 16:25N 54°60' E 007°14'1 1.1
2014-Jul-13 15:33N 55°00' E 007°15'1716.5
2014-Jul-13 14:33N 55°10' E 007°38'4 4.3
2014-Jul-13 13:33N 55°13' E 007°44'1010.0
2014-Jul-13 12:32N 55°19' E 007°58'1010.7
2014-Jul-13 11:33N 55°25' E 008°13'8 7.7
2014-Jul-13 10:33N 55°28' E 008°26'  
Track history (hours):
 
Tides and Currents Weather Stations Pressure Air Temp Water Temp Dewpoint Dewpoint Depression Visibility Wind Speed Wind Dir Waves Ship Positions

Union Manta

Last reported at 2014-Jul-23 10:33 UTC. Time now 2014-Jul-23 11:28 UTC.
Position N 53°58' E 006°55'.

Length 75 m; draft 6.3 m.

Type: Other ship. MMSI: 205340000.

Date/timePositionNaut miles runAvg speedWind from/ knotsBaromVisibWave heightAir tempDewpointWater temp
2014-Jul-23 10:33N 53°58' E 006°55'1 1.3
2014-Jul-23 09:33N 53°59' E 006°55'0 0.0
2014-Jul-23 08:33N 53°59' E 006°55'0 0.0
2014-Jul-23 07:33N 53°59' E 006°55'0 0.0
2014-Jul-23 06:33N 53°59' E 006°55'0 0.1
2014-Jul-23 05:33N 53°59' E 006°55'5 4.9
2014-Jul-23 04:33N 53°54' E 006°56'6 5.6
2014-Jul-23 03:33N 53°50' E 006°51'6 6.3
2014-Jul-23 02:33N 53°48' E 006°41'6 5.9
2014-Jul-23 01:33N 53°45' E 006°32'5 5.3
2014-Jul-23 00:33N 53°43' E 006°24'5 4.6
2014-Jul-22 23:33N 53°38' E 006°20'4 3.8
2014-Jul-22 22:33N 53°37' E 006°26'5 5.4
2014-Jul-22 21:33N 53°36' E 006°35'9 9.3
2014-Jul-22 20:33N 53°30' E 006°48'4 3.6
2014-Jul-22 19:33N 53°27' E 006°49'0 0.0
2014-Jul-22 18:33N 53°27' E 006°49'0 0.0
2014-Jul-22 17:34N 53°27' E 006°49'0 0.0
2014-Jul-22 16:33N 53°27' E 006°49'0 0.0
2014-Jul-22 15:33N 53°27' E 006°49'0 0.0
2014-Jul-22 14:34N 53°27' E 006°49'0 0.1
2014-Jul-22 13:33N 53°27' E 006°49'10 9.8
2014-Jul-22 12:31N 53°35' E 006°38'10 8.6
2014-Jul-22 11:19N 53°37' E 006°21'810.0
2014-Jul-22 10:33N 53°42' E 006°12'9 9.1
2014-Jul-22 09:33N 53°40' E 005°56'10 9.5
2014-Jul-22 08:33N 53°37' E 005°41'10 9.6
2014-Jul-22 07:33N 53°34' E 005°26'9 8.8
2014-Jul-22 06:33N 53°31' E 005°12'9 9.2
2014-Jul-22 05:33N 53°27' E 004°58'10 9.6
2014-Jul-22 04:33N 53°23' E 004°43'1010.0
2014-Jul-22 03:33N 53°14' E 004°36'1010.2
2014-Jul-22 02:33N 53°05' E 004°27'1110.3
2014-Jul-22 01:32N 52°56' E 004°19'1010.5
2014-Jul-22 00:33N 52°47' E 004°11'1010.5
2014-Jul-21 23:33N 52°38' E 004°01'1010.2
2014-Jul-21 22:33N 52°29' E 003°54'1110.6
2014-Jul-21 21:33N 52°19' E 003°52'1010.2
2014-Jul-21 20:33N 52°09' E 003°55'3 9.9
2014-Jul-21 20:18N 52°06' E 003°55'5 6.9
2014-Jul-21 19:33N 52°01' E 003°59'10 9.7
2014-Jul-21 18:33N 51°56' E 004°12'1 0.6
2014-Jul-21 17:33N 51°55' E 004°13'0 0.0
2014-Jul-21 16:33N 51°55' E 004°13'0 0.0
2014-Jul-21 15:33N 51°55' E 004°13'0 0.0
2014-Jul-21 14:33N 51°56' E 004°13'0 0.1
2014-Jul-21 13:33N 51°55' E 004°13'0 0.1
2014-Jul-21 12:33N 51°55' E 004°13'0 0.2
2014-Jul-21 11:33N 51°56' E 004°13'0 0.0
2014-Jul-21 10:33N 51°56' E 004°13'0 0.0
2014-Jul-21 09:33N 51°56' E 004°13'4 4.4
2014-Jul-21 08:33N 51°58' E 004°07'7 7.0
2014-Jul-21 07:33N 51°54' E 004°16'6 6.3
2014-Jul-21 06:33N 51°54' E 004°26'1 0.5
2014-Jul-21 05:33N 51°53' E 004°27'0 0.0
2014-Jul-21 04:33N 51°53' E 004°27'0 0.0
2014-Jul-21 03:33N 51°53' E 004°27'0 0.0
2014-Jul-21 02:33N 51°53' E 004°27'0 0.0
2014-Jul-21 01:33N 51°53' E 004°27'0 0.0
2014-Jul-21 00:33N 51°53' E 004°27'0 0.0
2014-Jul-20 23:33N 51°53' E 004°27'0 0.0
2014-Jul-20 22:33N 51°53' E 004°27'0 0.0
2014-Jul-20 21:33N 51°53' E 004°27'0 0.0
2014-Jul-20 20:33N 51°53' E 004°27'0 0.0
2014-Jul-20 19:33N 51°53' E 004°27'0 0.0
2014-Jul-20 18:33N 51°53' E 004°27'0 0.0
2014-Jul-20 17:33N 51°53' E 004°27'0 0.0
2014-Jul-20 16:33N 51°53' E 004°27'0 0.2
2014-Jul-20 15:33N 51°53' E 004°27'8 7.5
2014-Jul-20 14:33N 51°55' E 004°15'1111.4
2014-Jul-20 13:33N 52°00' E 003°59'9 8.5
2014-Jul-20 12:33N 51°59' E 003°45'8 7.8
2014-Jul-20 11:33N 51°57' E 003°32'1010.2
2014-Jul-20 10:33N 51°55' E 003°17'1010.1
2014-Jul-20 09:33N 51°53' E 003°00'4 1.7
2014-Jul-20 07:10N 51°51' E 002°54'0 0.3
2014-Jul-20 06:33N 51°51' E 002°54'6 5.7
2014-Jul-20 05:33N 51°55' E 003°01'6 5.9
2014-Jul-20 04:33N 51°60' E 003°07'6 6.1
2014-Jul-20 03:31N 52°03' E 003°16'6 6.7
2014-Jul-20 02:33N 52°04' E 003°26'8 7.6
2014-Jul-20 01:33N 52°04' E 003°39'7 7.5
2014-Jul-20 00:34N 52°03' E 003°51'1211.5
2014-Jul-19 23:33N 51°58' E 004°08'10 9.7
2014-Jul-19 22:33N 51°54' E 004°22'2 2.2
2014-Jul-19 21:33N 51°54' E 004°26'0 0.0
2014-Jul-19 20:33N 51°54' E 004°26'0 0.0
2014-Jul-19 19:33N 51°54' E 004°26'0 0.0
2014-Jul-19 18:32N 51°54' E 004°26'0 0.0
2014-Jul-19 17:33N 51°54' E 004°26'0 0.0
2014-Jul-19 16:33N 51°54' E 004°26'0 0.0
2014-Jul-19 15:33N 51°54' E 004°26'0 0.0
2014-Jul-19 14:32N 51°54' E 004°26'0 0.0
2014-Jul-19 13:33N 51°54' E 004°26'0 0.0
2014-Jul-19 12:33N 51°54' E 004°26'0 0.0
2014-Jul-19 11:33N 51°54' E 004°26'0 0.0
2014-Jul-19 10:33N 51°54' E 004°26'0 0.0
2014-Jul-19 09:30N 51°54' E 004°26'0 0.0
2014-Jul-19 08:33N 51°54' E 004°26'0 0.0
2014-Jul-19 06:32N 51°54' E 004°26'0 0.0
2014-Jul-19 05:32N 51°54' E 004°26'0 0.0
2014-Jul-19 04:33N 51°54' E 004°26'0 0.0
2014-Jul-19 03:32N 51°54' E 004°26'0 0.0
2014-Jul-19 02:33N 51°54' E 004°26'0 0.0
2014-Jul-19 01:33N 51°54' E 004°26'0 0.0
2014-Jul-19 00:33N 51°54' E 004°26'0 0.0
2014-Jul-18 23:33N 51°54' E 004°26'0 0.0
2014-Jul-18 22:33N 51°54' E 004°26'0 0.0
2014-Jul-18 21:32N 51°54' E 004°26'0 0.0
2014-Jul-18 20:32N 51°54' E 004°26'0 0.0
2014-Jul-18 19:32N 51°54' E 004°26'0 0.0
2014-Jul-18 18:32N 51°54' E 004°26'0 0.2
2014-Jul-18 17:33N 51°54' E 004°26'1 1.2
2014-Jul-18 16:32N 51°53' E 004°27'0 0.0
2014-Jul-18 15:32N 51°53' E 004°27'0 0.0
2014-Jul-18 14:29N 51°53' E 004°27'0 0.0
2014-Jul-18 13:32N 51°53' E 004°27'0 0.0
2014-Jul-18 12:29N 51°53' E 004°27'0 0.0
2014-Jul-18 11:32N 51°53' E 004°27'0 0.0
2014-Jul-18 10:32N 51°53' E 004°27'0 0.0
2014-Jul-18 09:32N 51°53' E 004°27'0 0.0
2014-Jul-18 08:32N 51°53' E 004°27'0 0.0
2014-Jul-18 07:32N 51°53' E 004°27'0 0.0
2014-Jul-18 06:32N 51°53' E 004°27'0 0.0
2014-Jul-18 05:32N 51°53' E 004°27'0 0.0
2014-Jul-18 04:32N 51°53' E 004°27'0 0.0
2014-Jul-18 03:29N 51°53' E 004°27'0 0.0
2014-Jul-18 02:32N 51°53' E 004°27'0 0.0
2014-Jul-18 01:32N 51°53' E 004°27'0 0.0
2014-Jul-18 00:32N 51°53' E 004°27'0 0.0
2014-Jul-17 23:32N 51°53' E 004°27'0 0.0
2014-Jul-17 22:32N 51°53' E 004°27'0 0.0
2014-Jul-17 21:32N 51°53' E 004°27'0 0.0
2014-Jul-17 20:32N 51°53' E 004°27'0 0.0
2014-Jul-17 19:32N 51°53' E 004°27'0 0.0
2014-Jul-17 18:32N 51°53' E 004°27'0 0.0
2014-Jul-17 17:29N 51°53' E 004°27'0 0.3
2014-Jul-17 16:33N 51°53' E 004°27'0 0.0
2014-Jul-17 15:33N 51°53' E 004°27'0 0.0
2014-Jul-17 14:33N 51°53' E 004°27'0 0.0
2014-Jul-17 13:33N 51°53' E 004°27'0 0.0
2014-Jul-17 12:33N 51°53' E 004°27'0 0.0
2014-Jul-17 11:30N 51°53' E 004°27'0 0.0
2014-Jul-17 10:33N 51°53' E 004°27'0 0.0
2014-Jul-17 09:30N 51°53' E 004°27'0 0.0
2014-Jul-17 08:30N 51°53' E 004°27'0 0.0
2014-Jul-17 07:33N 51°53' E 004°27'0 0.0
2014-Jul-17 06:33N 51°53' E 004°27'0 0.0
2014-Jul-17 05:33N 51°53' E 004°27'0 0.0
2014-Jul-17 04:33N 51°53' E 004°27'0 0.0
2014-Jul-17 03:33N 51°53' E 004°27'0 0.0
2014-Jul-17 02:33N 51°53' E 004°27'0 0.0
2014-Jul-17 01:33N 51°53' E 004°27'0 0.0
2014-Jul-17 00:33N 51°53' E 004°27'0 0.0
2014-Jul-16 23:33N 51°53' E 004°27'0 0.0
2014-Jul-16 22:33N 51°53' E 004°27'0 0.0
2014-Jul-16 21:33N 51°53' E 004°27'0 0.0
2014-Jul-16 20:33N 51°53' E 004°27'0 0.0
2014-Jul-16 19:33N 51°53' E 004°27'0 0.0
2014-Jul-16 18:33N 51°53' E 004°27'0 0.0
2014-Jul-16 17:33N 51°53' E 004°27'0 0.0
2014-Jul-16 16:33N 51°53' E 004°27'0 0.0
2014-Jul-16 15:33N 51°53' E 004°27'0 0.0
2014-Jul-16 14:33N 51°53' E 004°27'0 0.0
2014-Jul-16 13:33N 51°53' E 004°27'0 0.0
2014-Jul-16 12:33N 51°53' E 004°27'0 0.0
2014-Jul-16 11:33N 51°53' E 004°27'0 0.0
2014-Jul-16 10:33N 51°53' E 004°27'0 0.0
2014-Jul-16 09:33N 51°53' E 004°27'0 0.0
2014-Jul-16 08:33N 51°53' E 004°27'0 0.0
2014-Jul-16 07:30N 51°53' E 004°27'0 0.0
2014-Jul-16 06:33N 51°53' E 004°27'0 0.0
2014-Jul-16 05:33N 51°53' E 004°27'0 0.0
2014-Jul-16 04:30N 51°53' E 004°27'0 0.0
2014-Jul-16 03:33N 51°53' E 004°27'0 0.0
2014-Jul-16 02:30N 51°53' E 004°27'0 0.0
2014-Jul-16 01:33N 51°53' E 004°27'0 0.0
2014-Jul-16 00:33N 51°53' E 004°27'0 0.0
2014-Jul-15 23:33N 51°53' E 004°27'0 0.0
2014-Jul-15 22:33N 51°53' E 004°27'0 0.0
2014-Jul-15 21:30N 51°53' E 004°27'0 0.0
2014-Jul-15 20:33N 51°53' E 004°27'0 0.0
2014-Jul-15 19:30N 51°53' E 004°27'0 0.0
2014-Jul-15 18:33N 51°53' E 004°27'0 0.0
2014-Jul-15 17:33N 51°53' E 004°27'0 0.0
2014-Jul-15 16:33N 51°53' E 004°27'0 0.0
2014-Jul-15 15:33N 51°53' E 004°27'0 0.0
2014-Jul-15 14:34N 51°53' E 004°27'0 0.0
2014-Jul-15 13:33N 51°53' E 004°27'0 0.0
2014-Jul-15 12:33N 51°53' E 004°27'0 0.0
2014-Jul-15 11:34N 51°53' E 004°27'0 0.0
2014-Jul-15 10:34N 51°53' E 004°27'0 0.0
2014-Jul-15 09:34N 51°53' E 004°27'0 0.0
2014-Jul-15 08:33N 51°53' E 004°27'0 0.0
2014-Jul-15 07:34N 51°53' E 004°27'0 0.0
2014-Jul-15 06:33N 51°53' E 004°27'0 0.0
2014-Jul-15 05:34N 51°53' E 004°27'0 0.0
2014-Jul-15 04:34N 51°53' E 004°27'0 0.0
2014-Jul-15 03:33N 51°53' E 004°27'0 0.0
2014-Jul-15 02:33N 51°53' E 004°27'0 0.0
2014-Jul-15 01:34N 51°53' E 004°27'0 0.0
2014-Jul-15 00:34N 51°53' E 004°27'0 0.0
2014-Jul-14 23:34N 51°53' E 004°27'0 0.0
2014-Jul-14 22:33N 51°53' E 004°27'0 0.0
2014-Jul-14 21:34N 51°53' E 004°27'0 0.0
2014-Jul-14 20:34N 51°53' E 004°27'0 0.0
2014-Jul-14 19:34N 51°53' E 004°27'0 0.0
2014-Jul-14 18:33N 51°53' E 004°27'0 0.0
2014-Jul-14 17:34N 51°53' E 004°27'0 0.2
2014-Jul-14 16:33N 51°53' E 004°27'8 7.8
2014-Jul-14 15:34N 51°55' E 004°15'1211.7
2014-Jul-14 14:33N 52°00' E 003°58'8 7.5
2014-Jul-14 13:33N 52°04' E 003°47'6 5.2
2014-Jul-14 12:20N 52°10' E 003°46'6 8.3
2014-Jul-14 11:33N 52°16' E 003°47'1212.1
2014-Jul-14 10:33N 52°28' E 003°50'7310.4
2014-Jul-14 03:31N 53°36' E 004°39'2611.6
2014-Jul-14 01:16N 54°01' E 004°52'911.3
2014-Jul-14 00:26N 54°09' E 005°01'1011.3
2014-Jul-13 23:32N 54°14' E 005°15'1410.8
2014-Jul-13 22:13N 54°22' E 005°36'7 9.8
2014-Jul-13 21:32N 54°25' E 005°46'1010.4
2014-Jul-13 20:33N 54°31' E 005°60'1110.7
2014-Jul-13 19:31N 54°37' E 006°16'13 9.6
2014-Jul-13 18:10N 54°45' E 006°34'2325.6
2014-Jul-13 17:17N 54°57' E 007°07'5 5.3
2014-Jul-13 16:25N 54°60' E 007°14'1 1.1
2014-Jul-13 15:33N 55°00' E 007°15'1716.5
2014-Jul-13 14:33N 55°10' E 007°38'4 4.3
2014-Jul-13 13:33N 55°13' E 007°44'1010.0
2014-Jul-13 12:32N 55°19' E 007°58'1010.7
2014-Jul-13 11:33N 55°25' E 008°13'8 7.7
2014-Jul-13 10:33N 55°28' E 008°26'  

Dump ship's entire track history